createdAt,value
2023-02-03T00:01:03.976Z,0.42
2023-02-03T00:03:33.363Z,0.41
2023-02-03T00:06:03.657Z,0.39
2023-02-03T00:08:32.241Z,0.38
2023-02-03T00:11:00.992Z,0.38
2023-02-03T00:13:29.387Z,0.35
2023-02-03T00:15:57.579Z,0.31
2023-02-03T00:18:25.661Z,0.29
2023-02-03T00:20:54.360Z,0.28
2023-02-03T00:23:22.436Z,0.27
2023-02-03T00:25:50.618Z,0.26
2023-02-03T00:28:18.898Z,0.26
2023-02-03T00:30:46.975Z,0.25
2023-02-03T00:33:15.161Z,0.26
2023-02-03T00:35:43.498Z,0.29
2023-02-03T00:38:12.629Z,0.31
2023-02-03T00:40:40.647Z,0.32
2023-02-03T00:43:08.858Z,0.34
2023-02-03T00:45:37.724Z,0.37
2023-02-03T00:48:06.601Z,0.38
2023-02-03T00:50:34.735Z,0.40
2023-02-03T00:53:02.898Z,0.40
2023-02-03T00:55:30.871Z,0.39
2023-02-03T00:57:58.872Z,0.38
2023-02-03T01:00:27.157Z,0.37
2023-02-03T01:02:56.872Z,0.33
2023-02-03T01:05:25.194Z,0.32
2023-02-03T01:07:53.203Z,0.31
2023-02-03T01:10:21.249Z,0.29
2023-02-03T01:12:49.513Z,0.28
2023-02-03T01:15:17.705Z,0.29
2023-02-03T01:17:45.818Z,0.29
2023-02-03T01:20:14.161Z,0.26
2023-02-03T01:22:42.755Z,0.23
2023-02-03T01:25:11.054Z,0.19
2023-02-03T01:27:39.176Z,0.16
2023-02-03T01:30:07.900Z,0.13
2023-02-03T01:32:35.909Z,0.10
2023-02-03T01:35:05.626Z,0.07
2023-02-03T01:37:33.665Z,0.04
2023-02-03T01:40:01.687Z,0.00
2023-02-03T01:42:33.959Z,-0.04
2023-02-03T01:45:02.065Z,-0.08
2023-02-03T01:47:33.060Z,-0.09
2023-02-03T01:50:09.027Z,-0.12
2023-02-03T01:52:39.490Z,-0.14
2023-02-03T01:55:10.591Z,-0.16
2023-02-03T01:57:45.735Z,-0.18
2023-02-03T02:00:14.264Z,-0.21
2023-02-03T02:02:46.561Z,-0.24
2023-02-03T02:05:22.705Z,-0.26
2023-02-03T02:07:51.912Z,-0.26
2023-02-03T02:10:20.089Z,-0.26
2023-02-03T02:12:49.106Z,-0.26
2023-02-03T02:15:18.179Z,-0.26
2023-02-03T02:17:56.539Z,-0.25
2023-02-03T02:21:05.575Z,-0.24
2023-02-03T02:23:39.318Z,-0.24
2023-02-03T02:26:42.387Z,-0.24
2023-02-03T02:29:42.296Z,-0.22
2023-02-03T02:32:22.772Z,-0.21
2023-02-03T02:34:53.856Z,-0.20
2023-02-03T02:37:25.445Z,-0.20
2023-02-03T02:40:00.389Z,-0.20
2023-02-03T02:43:11.629Z,-0.18
2023-02-03T02:45:48.670Z,-0.15
2023-02-03T02:48:25.133Z,-0.13
2023-02-03T02:50:57.723Z,-0.11
2023-02-03T02:53:35.093Z,-0.09
2023-02-03T02:56:05.939Z,-0.08
2023-02-03T02:58:38.702Z,-0.08
2023-02-03T03:02:12.182Z,-0.09
2023-02-03T03:04:43.986Z,-0.11
2023-02-03T03:07:24.067Z,-0.13
2023-02-03T03:10:11.222Z,-0.16
2023-02-03T03:12:47.202Z,-0.19
2023-02-03T03:15:25.335Z,-0.23
2023-02-03T03:18:03.296Z,-0.27
2023-02-03T03:20:33.791Z,-0.31
2023-02-03T03:23:12.683Z,-0.34
2023-02-03T03:25:48.824Z,-0.37
2023-02-03T03:28:26.779Z,-0.41
2023-02-03T03:30:55.102Z,-0.45
2023-02-03T03:33:24.158Z,-0.47
2023-02-03T03:35:58.781Z,-0.49
2023-02-03T03:38:33.945Z,-0.51
2023-02-03T03:41:08.313Z,-0.54
2023-02-03T03:43:42.516Z,-0.56
2023-02-03T03:46:15.468Z,-0.57
2023-02-03T03:48:56.882Z,-0.59
2023-02-03T03:51:34.250Z,-0.60
2023-02-03T03:54:09.071Z,-0.61
2023-02-03T03:56:44.089Z,-0.62
2023-02-03T03:59:14.344Z,-0.62
2023-02-03T04:01:43.474Z,-0.59
2023-02-03T04:04:14.859Z,-0.57
2023-02-03T04:06:42.839Z,-0.56
2023-02-03T04:09:10.997Z,-0.54
2023-02-03T04:11:57.691Z,-0.53
2023-02-03T04:14:25.757Z,-0.51
2023-02-03T04:16:53.988Z,-0.50
2023-02-03T04:19:21.987Z,-0.49
2023-02-03T04:21:49.985Z,-0.48
2023-02-03T04:24:17.997Z,-0.48
2023-02-03T04:26:46.060Z,-0.46
2023-02-03T04:29:14.149Z,-0.46
2023-02-03T04:31:42.196Z,-0.46
2023-02-03T04:34:10.293Z,-0.45
2023-02-03T04:36:38.425Z,-0.44
2023-02-03T04:39:06.408Z,-0.44
2023-02-03T04:41:34.544Z,-0.45
2023-02-03T04:44:02.635Z,-0.48
2023-02-03T04:46:30.721Z,-0.48
2023-02-03T04:48:58.850Z,-0.49
2023-02-03T04:51:26.824Z,-0.50
2023-02-03T04:53:54.867Z,-0.53
2023-02-03T04:56:22.915Z,-0.55
2023-02-03T04:58:50.971Z,-0.58
2023-02-03T05:01:19.222Z,-0.61
2023-02-03T05:03:47.338Z,-0.62
2023-02-03T05:06:15.412Z,-0.64
2023-02-03T05:08:43.486Z,-0.67
2023-02-03T05:11:11.454Z,-0.70
2023-02-03T05:13:39.473Z,-0.72
2023-02-03T05:16:07.662Z,-0.74
2023-02-03T05:18:36.034Z,-0.76
2023-02-03T05:21:04.428Z,-0.77
2023-02-03T05:23:34.897Z,-0.77
2023-02-03T05:26:04.848Z,-0.79
2023-02-03T05:28:33.471Z,-0.80
2023-02-03T05:31:02.865Z,-0.83
2023-02-03T05:33:31.211Z,-0.86
2023-02-03T05:35:59.367Z,-0.89
2023-02-03T05:38:27.659Z,-0.93
2023-02-03T05:41:14.432Z,-0.97
2023-02-03T05:43:42.562Z,-1.00
2023-02-03T05:46:10.745Z,-1.03
2023-02-03T05:48:38.729Z,-1.04
2023-02-03T05:51:06.664Z,-1.05
2023-02-03T05:53:34.726Z,-1.05
2023-02-03T05:56:02.751Z,-1.05
2023-02-03T05:58:30.866Z,-1.04
2023-02-03T06:00:59.110Z,-1.04
2023-02-03T06:03:27.562Z,-1.03
2023-02-03T06:05:55.806Z,-1.01
2023-02-03T06:08:28.671Z,-0.99
2023-02-03T06:11:00.864Z,-0.96
2023-02-03T06:13:29.212Z,-0.94
2023-02-03T06:15:57.505Z,-0.92
2023-02-03T06:18:25.676Z,-0.90
2023-02-03T06:20:53.811Z,-0.89
2023-02-03T06:23:22.292Z,-0.86
2023-02-03T06:25:51.482Z,-0.83
2023-02-03T06:28:19.564Z,-0.79
2023-02-03T06:30:53.264Z,-0.78
2023-02-03T06:33:21.490Z,-0.77
2023-02-03T06:35:49.548Z,-0.75
2023-02-03T06:38:17.423Z,-0.74
2023-02-03T06:40:48.036Z,-0.73
2023-02-03T06:43:16.893Z,-0.71
2023-02-03T06:45:47.410Z,-0.68
2023-02-03T06:48:15.505Z,-0.65
2023-02-03T06:50:43.508Z,-0.61
2023-02-03T06:53:11.524Z,-0.58
2023-02-03T06:55:39.554Z,-0.56
2023-02-03T06:58:07.778Z,-0.54
2023-02-03T07:00:36.094Z,-0.51
2023-02-03T07:03:05.147Z,-0.46
2023-02-03T07:05:36.060Z,-0.43
2023-02-03T07:08:04.120Z,-0.42
2023-02-03T07:10:32.091Z,-0.38
2023-02-03T07:13:03.843Z,-0.33
2023-02-03T07:15:32.389Z,-0.30
2023-02-03T07:18:00.466Z,-0.29
2023-02-03T07:20:29.566Z,-0.27
2023-02-03T07:22:58.597Z,-0.25
2023-02-03T07:25:27.184Z,-0.22
2023-02-03T07:27:55.290Z,-0.21
2023-02-03T07:30:23.665Z,-0.21
2023-02-03T07:32:53.167Z,-0.19
2023-02-03T07:35:21.791Z,-0.16
2023-02-03T07:37:50.006Z,-0.14
2023-02-03T07:40:18.193Z,-0.14
2023-02-03T07:42:48.670Z,-0.16
2023-02-03T07:45:18.527Z,-0.16
2023-02-03T07:47:46.629Z,-0.16
2023-02-03T07:50:14.780Z,-0.13
2023-02-03T07:52:42.810Z,-0.08
2023-02-03T07:55:10.963Z,-0.02
2023-02-03T07:57:43.534Z,0.01
2023-02-03T08:00:14.399Z,-0.02
2023-02-03T08:02:43.953Z,0.00
2023-02-03T08:05:13.519Z,0.07
2023-02-03T08:07:42.392Z,0.17
2023-02-03T08:10:12.774Z,0.26
2023-02-03T08:12:44.000Z,0.37
2023-02-03T08:15:14.699Z,0.50
2023-02-03T08:17:44.637Z,0.62
2023-02-03T08:20:13.173Z,0.69
2023-02-03T08:22:41.279Z,0.78
2023-02-03T08:25:10.533Z,0.83
2023-02-03T08:27:39.123Z,0.87
2023-02-03T08:30:12.087Z,0.87
2023-02-03T08:32:40.269Z,0.87
2023-02-03T08:35:08.863Z,0.87
2023-02-03T08:37:37.266Z,0.82
2023-02-03T08:40:06.800Z,0.79
2023-02-03T08:42:34.850Z,0.72
2023-02-03T08:45:05.384Z,0.63
2023-02-03T08:47:33.644Z,0.57
2023-02-03T08:50:01.859Z,0.54
2023-02-03T08:52:30.612Z,0.52
2023-02-03T08:54:58.878Z,0.55
2023-02-03T08:57:27.301Z,0.62
2023-02-03T08:59:55.480Z,0.68
2023-02-03T09:02:23.651Z,0.75
2023-02-03T09:04:52.157Z,0.78
2023-02-03T09:07:20.781Z,0.82
2023-02-03T09:09:48.928Z,0.88
2023-02-03T09:12:17.515Z,0.93
2023-02-03T09:14:46.008Z,1.01
2023-02-03T09:17:14.177Z,1.09
2023-02-03T09:19:42.226Z,1.15
2023-02-03T09:22:10.209Z,1.18
2023-02-03T09:24:38.328Z,1.19
2023-02-03T09:27:06.522Z,1.19
2023-02-03T09:29:34.648Z,1.17
2023-02-03T09:32:07.833Z,1.09
2023-02-03T09:43:09.655Z,1.13
2023-02-03T09:45:37.810Z,1.19
2023-02-03T09:48:21.421Z,1.21
2023-02-03T09:50:51.670Z,1.22
2023-02-03T09:53:45.420Z,1.23
2023-02-03T09:56:26.919Z,1.20
2023-02-03T09:58:55.706Z,1.18
2023-02-03T10:01:28.246Z,1.17
2023-02-03T10:04:07.376Z,1.16
2023-02-03T10:06:41.163Z,1.19
2023-02-03T10:09:20.263Z,1.20
2023-02-03T10:12:02.737Z,1.22
2023-02-03T10:14:47.044Z,1.30
2023-02-03T10:17:32.195Z,1.39
2023-02-03T10:20:10.908Z,1.47
2023-02-03T10:22:49.307Z,1.53
2023-02-03T10:25:43.173Z,1.58
2023-02-03T10:28:40.471Z,1.61
2023-02-03T10:31:21.739Z,1.62
2023-02-03T10:34:25.576Z,1.61
2023-02-03T10:37:38.514Z,1.64
2023-02-03T10:40:11.064Z,1.68
2023-02-03T10:42:57.701Z,1.78
2023-02-03T10:45:25.842Z,1.95
2023-02-03T10:47:56.797Z,2.09
2023-02-03T10:50:34.095Z,2.19
2023-02-03T10:53:23.787Z,2.32
2023-02-03T10:56:09.763Z,2.39
2023-02-03T10:58:40.225Z,2.43
2023-02-03T11:01:12.608Z,2.49
2023-02-03T11:03:55.445Z,2.55
2023-02-03T11:06:23.674Z,2.70
2023-02-03T11:08:52.655Z,2.81
2023-02-03T11:11:22.337Z,2.79
2023-02-03T11:14:03.618Z,2.84
2023-02-03T11:16:34.355Z,2.84
2023-02-03T11:19:05.296Z,2.91
2023-02-03T11:21:39.807Z,2.94
2023-02-03T11:24:26.855Z,2.92
2023-02-03T11:27:05.009Z,2.91
2023-02-03T11:29:36.746Z,2.95
2023-02-03T11:32:14.143Z,3.03
2023-02-03T11:34:49.879Z,3.03
2023-02-03T11:37:38.825Z,2.91
2023-02-03T11:40:06.921Z,2.84
2023-02-03T11:42:37.611Z,2.89
2023-02-03T11:45:15.771Z,2.91
2023-02-03T11:48:00.292Z,2.94
2023-02-03T11:50:55.451Z,2.96
2023-02-03T11:53:57.498Z,3.00
2023-02-03T11:56:44.772Z,2.98
2023-02-03T11:59:29.011Z,2.88
2023-02-03T12:01:57.058Z,2.74
2023-02-03T12:05:09.800Z,2.59
2023-02-03T12:07:55.021Z,2.54
2023-02-03T12:10:52.115Z,2.60
2023-02-03T12:13:20.181Z,2.72
2023-02-03T12:16:13.370Z,2.82
2023-02-03T12:19:05.220Z,2.84
2023-02-03T12:21:44.537Z,2.83
2023-02-03T12:24:38.098Z,2.76
2023-02-03T12:27:12.770Z,2.61
2023-02-03T12:29:49.025Z,2.55
2023-02-03T12:32:36.995Z,2.59
2023-02-03T12:35:23.427Z,2.62
2023-02-03T12:37:54.523Z,2.56
2023-02-03T12:40:44.447Z,2.54
2023-02-03T12:43:31.686Z,2.50
2023-02-03T12:46:06.338Z,2.44
2023-02-03T12:48:42.797Z,2.39
2023-02-03T12:51:35.296Z,2.42
2023-02-03T12:54:28.453Z,2.46
2023-02-03T12:57:08.719Z,2.47
2023-02-03T12:59:39.828Z,2.51
2023-02-03T13:02:30.900Z,2.55
2023-02-03T13:05:22.254Z,2.65
2023-02-03T13:08:00.010Z,2.73
2023-02-03T13:10:45.010Z,2.82
2023-02-03T13:13:17.587Z,2.86
2023-02-03T13:15:50.719Z,2.90
2023-02-03T13:18:32.763Z,3.04
2023-02-03T13:21:00.948Z,3.14
2023-02-03T13:23:29.344Z,3.26
2023-02-03T13:26:28.413Z,3.32
2023-02-03T13:29:02.438Z,3.37
2023-02-03T13:31:51.769Z,3.27
2023-02-03T13:34:25.814Z,3.21
2023-02-03T13:37:17.907Z,3.14
2023-02-03T13:39:45.912Z,3.11
2023-02-03T13:42:16.589Z,3.06
2023-02-03T13:44:51.731Z,2.97
2023-02-03T13:47:27.569Z,2.88
2023-02-03T13:50:02.976Z,2.80
2023-02-03T13:52:42.235Z,2.74
2023-02-03T13:55:28.765Z,2.69
2023-02-03T13:57:57.717Z,2.61
2023-02-03T14:00:45.991Z,2.51
2023-02-03T14:03:25.783Z,2.42
2023-02-03T14:05:56.144Z,2.35
2023-02-03T14:08:30.142Z,2.27
2023-02-03T14:11:35.425Z,2.18
2023-02-03T14:14:12.445Z,2.08
2023-02-03T14:16:41.530Z,1.99
2023-02-03T14:19:22.785Z,1.95
2023-02-03T14:22:01.354Z,1.92
2023-02-03T14:24:39.765Z,1.88
2023-02-03T14:27:23.641Z,1.84
2023-02-03T14:30:08.878Z,1.78
2023-02-03T14:33:03.494Z,1.76
2023-02-03T14:35:33.904Z,1.73
2023-02-03T14:38:08.749Z,1.72
2023-02-03T14:40:39.629Z,1.72
2023-02-03T14:43:36.288Z,1.74
2023-02-03T14:46:29.839Z,1.74
2023-02-03T14:49:01.013Z,1.71
2023-02-03T14:51:47.489Z,1.69
2023-02-03T14:54:27.514Z,1.65
2023-02-03T14:57:27.657Z,1.61
2023-02-03T15:00:07.738Z,1.58
2023-02-03T15:02:36.916Z,1.56
2023-02-03T15:05:14.315Z,1.54
2023-02-03T15:07:49.581Z,1.52
2023-02-03T15:10:23.042Z,1.48
2023-02-03T15:12:53.323Z,1.43
2023-02-03T15:15:25.000Z,1.39
2023-02-03T15:17:55.677Z,1.37
2023-02-03T15:20:29.694Z,1.37
2023-02-03T15:22:58.236Z,1.36
2023-02-03T15:25:29.460Z,1.32
2023-02-03T15:28:17.067Z,1.29
2023-02-03T15:30:45.458Z,1.28
2023-02-03T15:33:16.927Z,1.27
2023-02-03T15:35:48.219Z,1.25
2023-02-03T15:38:23.918Z,1.21
2023-02-03T15:40:57.847Z,1.19
2023-02-03T15:43:38.378Z,1.17
2023-02-03T15:46:35.189Z,1.12
2023-02-03T15:49:18.142Z,1.08
2023-02-03T15:51:48.912Z,1.03
2023-02-03T15:54:19.216Z,0.96
2023-02-03T15:57:11.648Z,0.91
2023-02-03T15:59:42.681Z,0.86
2023-02-03T16:02:33.517Z,0.83
2023-02-03T16:05:28.469Z,0.79
2023-02-03T16:07:57.153Z,0.76
2023-02-03T16:10:33.814Z,0.74
2023-02-03T16:13:21.773Z,0.70
2023-02-03T16:16:15.558Z,0.66
2023-02-03T16:18:56.103Z,0.62
2023-02-03T16:21:50.297Z,0.59
2023-02-03T16:24:38.051Z,0.58
2023-02-03T16:27:27.682Z,0.57
2023-02-03T16:30:41.590Z,0.56
2023-02-03T16:33:27.998Z,0.55
2023-02-03T16:36:17.289Z,0.54
2023-02-03T16:39:05.885Z,0.52
2023-02-03T16:41:52.562Z,0.47
2023-02-03T16:44:39.147Z,0.44
2023-02-03T16:47:57.429Z,0.41
2023-02-03T16:50:44.148Z,0.38
2023-02-03T16:53:19.819Z,0.32
2023-02-03T16:55:49.290Z,0.26
2023-02-03T16:58:18.057Z,0.20
2023-02-03T17:00:48.321Z,0.14
2023-02-03T17:03:22.510Z,0.09
2023-02-03T17:05:51.659Z,0.04
2023-02-03T17:08:22.080Z,-0.02
2023-02-03T17:10:50.773Z,-0.06
2023-02-03T17:13:21.214Z,-0.10
2023-02-03T17:15:52.840Z,-0.14
2023-02-03T17:18:21.411Z,-0.17
2023-02-03T17:20:50.128Z,-0.19
2023-02-03T17:23:18.486Z,-0.23
2023-02-03T17:25:49.281Z,-0.25
2023-02-03T17:28:18.132Z,-0.27
2023-02-03T17:30:46.143Z,-0.29
2023-02-03T17:33:14.412Z,-0.31
2023-02-03T17:35:45.595Z,-0.33
2023-02-03T17:38:14.912Z,-0.36
2023-02-03T17:54:38.096Z,-0.30
2023-02-03T17:57:06.559Z,-0.29
2023-02-03T17:59:37.862Z,-0.26
2023-02-03T18:02:06.236Z,-0.21
2023-02-03T18:04:35.181Z,-0.19
2023-02-03T18:07:03.233Z,-0.19
2023-02-03T18:09:31.297Z,-0.14
2023-02-03T18:11:59.324Z,-0.13
2023-02-03T18:14:27.538Z,-0.12
2023-02-03T18:16:55.547Z,-0.10
2023-02-03T18:19:23.562Z,-0.05
2023-02-03T18:21:51.507Z,-0.02
2023-02-03T18:24:22.453Z,-0.04
2023-02-03T18:26:52.030Z,-0.07
2023-02-03T18:29:20.656Z,-0.08
2023-02-03T18:31:48.822Z,-0.05
2023-02-03T18:34:17.491Z,-0.03
2023-02-03T18:36:46.191Z,-0.01
2023-02-03T18:39:15.325Z,0.00
2023-02-03T18:41:43.587Z,-0.01
2023-02-03T18:44:11.688Z,-0.03
2023-02-03T18:46:39.895Z,0.01
2023-02-03T18:49:09.486Z,0.02
2023-02-03T18:51:37.709Z,0.04
2023-02-03T18:54:05.829Z,0.08
2023-02-03T18:56:36.746Z,0.08
2023-02-03T18:59:10.093Z,0.01
2023-02-03T19:01:39.274Z,-0.06
2023-02-03T19:04:07.396Z,-0.12
2023-02-03T19:06:36.199Z,-0.19
2023-02-03T19:09:05.973Z,-0.22
2023-02-03T19:11:35.157Z,-0.19
2023-02-03T19:14:03.670Z,-0.16
2023-02-03T19:16:31.721Z,-0.12
2023-02-03T19:18:59.815Z,-0.08
2023-02-03T19:21:28.136Z,-0.12
2023-02-03T19:23:56.176Z,-0.15
2023-02-03T19:26:24.251Z,-0.16
2023-02-03T19:28:52.730Z,-0.16
2023-02-03T19:31:20.833Z,-0.19
2023-02-03T19:33:49.315Z,-0.27
2023-02-03T19:36:17.368Z,-0.36
2023-02-03T19:38:45.327Z,-0.48
2023-02-03T19:41:13.329Z,-0.55
2023-02-03T19:43:41.309Z,-0.58
2023-02-03T19:46:09.451Z,-0.63
2023-02-03T19:48:39.610Z,-0.70
2023-02-03T19:51:07.551Z,-0.74
2023-02-03T19:53:36.572Z,-0.78
2023-02-03T19:56:04.864Z,-0.78
2023-02-03T19:58:32.823Z,-0.78
2023-02-03T20:01:00.795Z,-0.78
2023-02-03T20:03:28.712Z,-0.78
2023-02-03T20:05:56.711Z,-0.79
2023-02-03T20:08:24.756Z,-0.81
2023-02-03T20:10:53.051Z,-0.85
2023-02-03T20:13:20.992Z,-0.85
2023-02-03T20:15:49.081Z,-0.87
2023-02-03T20:18:17.118Z,-0.89
2023-02-03T20:20:51.395Z,-0.92
2023-02-03T20:23:19.878Z,-0.95
2023-02-03T20:25:50.246Z,-0.96
2023-02-03T20:28:18.744Z,-0.97
2023-02-03T20:30:46.930Z,-0.96
2023-02-03T20:33:14.897Z,-0.95
2023-02-03T20:35:42.902Z,-0.93
2023-02-03T20:38:10.996Z,-0.92
2023-02-03T20:40:38.963Z,-0.91
2023-02-03T20:43:16.332Z,-0.87
2023-02-03T20:45:44.458Z,-0.83
2023-02-03T20:48:14.193Z,-0.80
2023-02-03T20:50:48.324Z,-0.78
2023-02-03T20:53:20.485Z,-0.75
2023-02-03T20:55:49.262Z,-0.73
2023-02-03T20:58:20.186Z,-0.71
2023-02-03T21:00:49.641Z,-0.68
2023-02-03T21:03:37.835Z,-0.66
2023-02-03T21:06:17.480Z,-0.63
2023-02-03T21:08:47.025Z,-0.58
2023-02-03T21:11:17.668Z,-0.57
2023-02-03T21:13:47.398Z,-0.56
2023-02-03T21:16:25.341Z,-0.54
2023-02-03T21:18:55.541Z,-0.52
2023-02-03T21:21:46.746Z,-0.50
2023-02-03T21:24:24.119Z,-0.50
2023-02-03T21:26:52.768Z,-0.50
2023-02-03T21:29:33.693Z,-0.50
2023-02-03T21:32:01.729Z,-0.49
2023-02-03T21:34:29.842Z,-0.47
2023-02-03T21:37:01.878Z,-0.43
2023-02-03T21:39:33.225Z,-0.44
2023-02-03T21:42:41.179Z,-0.45
2023-02-03T21:45:19.872Z,-0.45
2023-02-03T21:47:50.260Z,-0.46
2023-02-03T21:50:34.785Z,-0.45
2023-02-03T21:53:05.401Z,-0.45
2023-02-03T21:55:33.544Z,-0.44
2023-02-03T21:58:16.088Z,-0.41
2023-02-03T22:00:48.134Z,-0.40
2023-02-03T22:03:24.647Z,-0.40
2023-02-03T22:06:15.401Z,-0.39
2023-02-03T22:08:45.709Z,-0.38
2023-02-03T22:11:14.984Z,-0.39
2023-02-03T22:13:43.144Z,-0.37
2023-02-03T22:16:14.304Z,-0.35
2023-02-03T22:18:42.242Z,-0.36
2023-02-03T22:21:10.880Z,-0.39
2023-02-03T22:23:39.964Z,-0.40
2023-02-03T22:26:09.294Z,-0.41
2023-02-03T22:28:38.111Z,-0.41
2023-02-03T22:31:07.779Z,-0.45
2023-02-03T22:33:36.460Z,-0.46
2023-02-03T22:36:06.839Z,-0.45
2023-02-03T22:38:35.369Z,-0.44
2023-02-03T22:41:04.434Z,-0.44
2023-02-03T22:43:32.477Z,-0.47
2023-02-03T22:46:01.946Z,-0.49
2023-02-03T22:48:30.520Z,-0.53
2023-02-03T22:50:58.376Z,-0.57
2023-02-03T22:53:26.704Z,-0.61
2023-02-03T22:55:54.642Z,-0.62
2023-02-03T22:58:22.586Z,-0.65
2023-02-03T23:00:50.539Z,-0.67
2023-02-03T23:03:18.589Z,-0.68
2023-02-03T23:05:46.642Z,-0.70
2023-02-03T23:08:14.729Z,-0.70
2023-02-03T23:10:42.716Z,-0.72
2023-02-03T23:13:10.865Z,-0.72
2023-02-03T23:15:38.875Z,-0.73
2023-02-03T23:18:06.861Z,-0.74
2023-02-03T23:20:34.884Z,-0.75
2023-02-03T23:23:02.853Z,-0.74
2023-02-03T23:25:30.896Z,-0.74
2023-02-03T23:27:59.029Z,-0.73
2023-02-03T23:30:27.254Z,-0.73
2023-02-03T23:32:55.269Z,-0.74
2023-02-03T23:35:58.463Z,-0.74
2023-02-03T23:38:26.554Z,-0.76
2023-02-03T23:40:56.122Z,-0.76
2023-02-03T23:43:24.057Z,-0.76
2023-02-03T23:45:52.095Z,-0.78
2023-02-03T23:48:20.084Z,-0.79
2023-02-03T23:50:49.228Z,-0.80
2023-02-03T23:53:17.128Z,-0.83
2023-02-03T23:55:45.124Z,-0.83
2023-02-03T23:58:13.080Z,-0.82
